Time,TemperatureF,DewpointF,PressureIn,WindDirection,WindDirectionDegrees,WindSpeedMPH,WindSpeedGustMPH,Humidity,HourlyPrecipIn,Conditions,Clouds,dailyrainin,SolarRadiationWatts/m^2,SoftwareType,DateUTC
2013-04-02 00:01:00,21.0,7.0,-100.00,West,279,10.0,28.0,54,0.00,,,0.00,0.000000,,2013-04-02 04:01:00,
2013-04-02 00:23:00,21.0,7.0,-100.00,West,279,10.0,28.0,54,0.00,,,0.00,0.000000,,2013-04-02 04:23:00,
2013-04-02 00:33:00,21.0,7.0,-100.00,West,279,10.0,28.0,54,0.00,,,0.00,0.000000,,2013-04-02 04:33:00,
2013-04-02 00:43:00,21.0,7.0,-100.00,West,279,10.0,28.0,54,0.00,,,0.00,0.000000,,2013-04-02 04:43:00,
2013-04-02 00:53:00,21.0,7.0,-100.00,West,279,10.0,28.0,54,0.00,,,0.00,0.000000,,2013-04-02 04:53:00,
2013-04-02 01:01:00,19.0,13.0,-100.00,West,276,5.0,19.0,77,0.00,,,0.00,0.000000,,2013-04-02 05:01:00,
2013-04-02 01:23:00,19.0,13.0,-100.00,West,276,5.0,19.0,77,0.00,,,0.00,0.000000,,2013-04-02 05:23:00,
2013-04-02 01:32:00,19.0,13.0,-100.00,West,276,5.0,19.0,77,0.00,,,0.00,0.000000,,2013-04-02 05:32:00,
2013-04-02 01:43:00,19.0,13.0,-100.00,West,276,5.0,19.0,77,0.00,,,0.00,0.000000,,2013-04-02 05:43:00,
2013-04-02 01:52:00,19.0,13.0,-100.00,West,276,5.0,19.0,77,0.00,,,0.00,0.000000,,2013-04-02 05:52:00,
2013-04-02 02:01:00,18.0,7.0,-100.00,WSW,257,5.0,15.0,62,0.00,,,0.00,0.000000,,2013-04-02 06:01:00,
2013-04-02 02:22:00,18.0,7.0,-100.00,WSW,257,5.0,15.0,62,0.00,,,0.00,0.000000,,2013-04-02 06:22:00,
2013-04-02 02:32:00,18.0,7.0,-100.00,WSW,257,5.0,15.0,62,0.00,,,0.00,0.000000,,2013-04-02 06:32:00,
2013-04-02 02:42:00,18.0,7.0,-100.00,WSW,257,5.0,15.0,62,0.00,,,0.00,0.000000,,2013-04-02 06:42:00,
2013-04-02 02:52:00,18.0,7.0,-100.00,WSW,257,5.0,15.0,62,0.00,,,0.00,0.000000,,2013-04-02 06:52:00,
2013-04-02 03:01:00,18.0,6.0,-100.00,West,269,9.0,20.0,59,0.00,,,0.00,0.000000,,2013-04-02 07:01:00,
2013-04-02 03:32:00,18.0,6.0,-100.00,West,269,9.0,20.0,59,0.00,,,0.00,0.000000,,2013-04-02 07:32:00,
2013-04-02 03:43:00,18.0,6.0,-100.00,West,269,9.0,20.0,59,0.00,,,0.00,0.000000,,2013-04-02 07:43:00,
2013-04-02 03:53:00,18.0,6.0,-100.00,West,269,9.0,20.0,59,0.00,,,0.00,0.000000,,2013-04-02 07:53:00,
2013-04-02 04:01:00,17.0,8.0,-100.00,West,261,6.0,18.0,66,0.00,,,0.00,0.000000,,2013-04-02 08:01:00,
2013-04-02 04:32:00,17.0,8.0,-100.00,West,261,6.0,18.0,66,0.00,,,0.00,0.000000,,2013-04-02 08:32:00,
2013-04-02 04:43:00,17.0,8.0,-100.00,West,261,6.0,18.0,66,0.00,,,0.00,0.000000,,2013-04-02 08:43:00,
2013-04-02 04:52:00,17.0,8.0,-100.00,West,261,6.0,18.0,66,0.00,,,0.00,0.000000,,2013-04-02 08:52:00,
2013-04-02 05:01:00,17.0,7.0,-100.00,West,267,9.0,19.0,63,0.00,,,0.00,0.000000,,2013-04-02 09:01:00,
2013-04-02 05:33:00,17.0,7.0,-100.00,West,267,9.0,19.0,63,0.00,,,0.00,0.000000,,2013-04-02 09:33:00,
2013-04-02 05:43:00,17.0,7.0,-100.00,West,267,9.0,19.0,63,0.00,,,0.00,0.000000,,2013-04-02 09:43:00,
2013-04-02 05:53:00,17.0,7.0,-100.00,West,267,9.0,19.0,63,0.00,,,0.00,0.000000,,2013-04-02 09:53:00,
2013-04-02 06:01:00,17.0,6.0,-100.00,West,271,7.0,18.0,62,0.00,,,0.00,0.000000,,2013-04-02 10:01:00,
2013-04-02 06:24:00,17.0,6.0,-100.00,West,271,7.0,18.0,62,0.00,,,0.00,0.000000,,2013-04-02 10:24:00,
2013-04-02 06:33:00,17.0,6.0,-100.00,West,271,7.0,18.0,62,0.00,,,0.00,0.000000,,2013-04-02 10:33:00,
2013-04-02 06:43:00,17.0,6.0,-100.00,West,271,7.0,18.0,62,0.00,,,0.00,0.000000,,2013-04-02 10:43:00,
2013-04-02 06:53:00,17.0,6.0,-100.00,West,271,7.0,18.0,62,0.00,,,0.00,0.000000,,2013-04-02 10:53:00,
2013-04-02 07:01:00,16.0,8.0,-100.00,West,266,7.0,15.0,69,0.00,,,0.00,6.000000,,2013-04-02 11:01:00,
2013-04-02 07:33:00,16.0,8.0,-100.00,West,266,7.0,15.0,69,0.00,,,0.00,6.000000,,2013-04-02 11:33:00,
2013-04-02 07:43:00,16.0,8.0,-100.00,West,266,7.0,15.0,69,0.00,,,0.00,6.000000,,2013-04-02 11:43:00,
2013-04-02 07:53:00,16.0,8.0,-100.00,West,266,7.0,15.0,69,0.00,,,0.00,6.000000,,2013-04-02 11:53:00,
2013-04-02 08:01:00,17.0,8.0,-100.00,West,265,8.0,15.0,68,0.00,,,0.00,54.000000,,2013-04-02 12:01:00,
2013-04-02 08:32:00,17.0,8.0,-100.00,West,265,8.0,15.0,68,0.00,,,0.00,54.000000,,2013-04-02 12:32:00,
2013-04-02 08:42:00,17.0,8.0,-100.00,West,265,8.0,15.0,68,0.00,,,0.00,54.000000,,2013-04-02 12:42:00,
2013-04-02 08:53:00,17.0,8.0,-100.00,West,265,8.0,15.0,68,0.00,,,0.00,54.000000,,2013-04-02 12:53:00,
2013-04-02 09:01:00,17.0,10.0,-100.00,West,268,9.0,18.0,72,0.00,,,0.00,137.000000,,2013-04-02 13:01:00,
2013-04-02 09:33:00,17.0,10.0,-100.00,West,268,9.0,18.0,72,0.00,,,0.00,137.000000,,2013-04-02 13:33:00,
2013-04-02 09:42:00,17.0,10.0,-100.00,West,268,9.0,18.0,72,0.00,,,0.00,137.000000,,2013-04-02 13:42:00,
2013-04-02 09:52:00,17.0,10.0,-100.00,West,268,9.0,18.0,72,0.00,,,0.00,137.000000,,2013-04-02 13:52:00,
2013-04-02 10:01:00,22.0,10.0,-100.00,West,268,8.0,19.0,60,0.00,,,0.00,333.000000,,2013-04-02 14:01:00,
2013-04-02 10:33:00,22.0,10.0,-100.00,West,268,8.0,19.0,60,0.00,,,0.00,333.000000,,2013-04-02 14:33:00,
2013-04-02 10:43:00,22.0,10.0,-100.00,West,268,8.0,19.0,60,0.00,,,0.00,333.000000,,2013-04-02 14:43:00,
2013-04-02 10:52:00,22.0,10.0,-100.00,West,268,8.0,19.0,60,0.00,,,0.00,333.000000,,2013-04-02 14:52:00,
2013-04-02 11:01:00,22.0,6.0,-100.00,West,261,11.0,26.0,49,0.00,,,0.00,433.000000,,2013-04-02 15:01:00,
2013-04-02 11:33:00,22.0,6.0,-100.00,West,261,11.0,26.0,49,0.00,,,0.00,433.000000,,2013-04-02 15:33:00,
2013-04-02 11:43:00,22.0,6.0,-100.00,West,261,11.0,26.0,49,0.00,,,0.00,433.000000,,2013-04-02 15:43:00,
2013-04-02 11:58:00,22.0,6.0,-100.00,West,261,11.0,26.0,49,0.00,,,0.00,433.000000,,2013-04-02 15:58:00,
2013-04-02 12:01:00,23.0,8.0,-100.00,West,261,10.0,26.0,51,0.00,,,-99.99,433.000000,,2013-04-02 16:01:00,
2013-04-02 12:39:00,23.0,8.0,-100.00,West,261,10.0,26.0,51,0.00,,,-99.99,433.000000,,2013-04-02 16:39:00,
2013-04-02 12:54:00,23.0,8.0,-100.00,West,261,10.0,26.0,51,0.00,,,-99.99,433.000000,,2013-04-02 16:54:00,
2013-04-02 13:01:00,22.0,8.0,-100.00,West,266,11.0,25.0,53,0.00,,,0.00,460.000000,,2013-04-02 17:01:00,
2013-04-02 13:35:00,22.0,8.0,-100.00,West,266,11.0,25.0,53,0.00,,,0.00,460.000000,,2013-04-02 17:35:00,
2013-04-02 13:44:00,22.0,8.0,-100.00,West,266,11.0,25.0,53,0.00,,,0.00,460.000000,,2013-04-02 17:44:00,
2013-04-02 13:57:00,22.0,8.0,-100.00,West,266,11.0,25.0,53,0.00,,,0.00,460.000000,,2013-04-02 17:57:00,
2013-04-02 14:01:00,23.0,8.0,-100.00,WSW,256,10.0,24.0,51,0.00,,,0.00,506.000000,,2013-04-02 18:01:00,
2013-04-02 14:35:00,23.0,8.0,-100.00,WSW,256,10.0,24.0,51,0.00,,,0.00,506.000000,,2013-04-02 18:35:00,
2013-04-02 14:43:00,23.0,8.0,-100.00,WSW,256,10.0,24.0,51,0.00,,,0.00,506.000000,,2013-04-02 18:43:00,
2013-04-02 14:57:00,23.0,8.0,-100.00,WSW,256,10.0,24.0,51,0.00,,,0.00,506.000000,,2013-04-02 18:57:00,
2013-04-02 15:01:00,24.0,8.0,-100.00,West,264,10.0,27.0,50,0.00,,,0.00,454.000000,,2013-04-02 19:01:00,
2013-04-02 15:34:00,24.0,8.0,-100.00,West,264,10.0,27.0,50,0.00,,,0.00,454.000000,,2013-04-02 19:34:00,
2013-04-02 15:47:00,24.0,8.0,-100.00,West,264,10.0,27.0,50,0.00,,,0.00,454.000000,,2013-04-02 19:47:00,
2013-04-02 15:57:00,24.0,8.0,-100.00,West,264,10.0,27.0,50,0.00,,,0.00,454.000000,,2013-04-02 19:57:00,
2013-04-02 16:01:00,22.0,13.0,-100.00,West,262,10.0,26.0,68,0.00,,,0.00,302.000000,,2013-04-02 20:01:00,
2013-04-02 16:34:00,22.0,13.0,-100.00,West,262,10.0,26.0,68,0.00,,,0.00,302.000000,,2013-04-02 20:34:00,
2013-04-02 16:44:00,22.0,13.0,-100.00,West,262,10.0,26.0,68,0.00,,,0.00,302.000000,,2013-04-02 20:44:00,
2013-04-02 16:55:00,22.0,13.0,-100.00,West,262,10.0,26.0,68,0.00,,,0.00,302.000000,,2013-04-02 20:55:00,
2013-04-02 18:01:00,22.0,14.0,-100.00,West,260,10.0,25.0,72,-99.99,,,0.00,161.000000,,2013-04-02 22:01:00,
2013-04-02 18:34:00,22.0,14.0,-100.00,West,260,10.0,25.0,72,-99.99,,,0.00,161.000000,,2013-04-02 22:34:00,
2013-04-02 18:44:00,22.0,14.0,-100.00,West,260,10.0,25.0,72,-99.99,,,0.00,161.000000,,2013-04-02 22:44:00,
2013-04-02 18:54:00,22.0,14.0,-100.00,West,260,10.0,25.0,72,-99.99,,,0.00,161.000000,,2013-04-02 22:54:00,
2013-04-02 19:01:00,21.0,16.0,-100.00,West,271,10.0,23.0,82,0.00,,,0.00,40.000000,,2013-04-02 23:01:00,
2013-04-02 19:43:00,21.0,16.0,-100.00,West,271,10.0,23.0,82,0.00,,,0.00,40.000000,,2013-04-02 23:43:00,
2013-04-02 19:54:00,21.0,16.0,-100.00,West,271,10.0,23.0,82,0.00,,,0.00,40.000000,,2013-04-02 23:54:00,
2013-04-02 20:01:00,21.0,14.0,-100.00,West,265,8.0,20.0,75,0.00,,,0.00,3.000000,,2013-04-03 00:01:00,
2013-04-02 20:34:00,21.0,14.0,-100.00,West,265,8.0,20.0,75,0.00,,,0.00,3.000000,,2013-04-03 00:34:00,
2013-04-02 20:48:00,21.0,14.0,-100.00,West,265,8.0,20.0,75,0.00,,,0.00,3.000000,,2013-04-03 00:48:00,
2013-04-02 20:57:00,21.0,14.0,-100.00,West,265,8.0,20.0,75,0.00,,,0.00,3.000000,,2013-04-03 00:57:00,
2013-04-02 21:01:00,22.0,13.0,-100.00,West,268,9.0,20.0,67,0.00,,,0.00,0.000000,,2013-04-03 01:01:00,
2013-04-02 21:34:00,22.0,13.0,-100.00,West,268,9.0,20.0,67,0.00,,,0.00,0.000000,,2013-04-03 01:34:00,
2013-04-02 21:43:00,22.0,13.0,-100.00,West,268,9.0,20.0,67,0.00,,,0.00,0.000000,,2013-04-03 01:43:00,
2013-04-02 21:54:00,22.0,13.0,-100.00,West,268,9.0,20.0,67,0.00,,,0.00,0.000000,,2013-04-03 01:54:00,
2013-04-02 22:01:00,22.0,8.0,-100.00,West,271,12.0,24.0,53,0.00,,,0.00,0.000000,,2013-04-03 02:01:00,
2013-04-02 22:34:00,22.0,8.0,-100.00,West,271,12.0,24.0,53,0.00,,,0.00,0.000000,,2013-04-03 02:34:00,
2013-04-02 22:44:00,22.0,8.0,-100.00,West,271,12.0,24.0,53,0.00,,,0.00,0.000000,,2013-04-03 02:44:00,
2013-04-02 22:53:00,22.0,8.0,-100.00,West,271,12.0,24.0,53,0.00,,,0.00,0.000000,,2013-04-03 02:53:00,
2013-04-02 23:01:00,21.0,7.0,-100.00,West,271,10.0,26.0,54,0.00,,,0.00,0.000000,,2013-04-03 03:01:00,
2013-04-02 23:23:00,21.0,7.0,-100.00,West,271,10.0,26.0,54,0.00,,,0.00,0.000000,,2013-04-03 03:23:00,
2013-04-02 23:38:00,21.0,7.0,-100.00,West,271,10.0,26.0,54,0.00,,,0.00,0.000000,,2013-04-03 03:38:00,
2013-04-02 23:44:00,21.0,7.0,-100.00,West,271,10.0,26.0,54,0.00,,,0.00,0.000000,,2013-04-03 03:44:00,
2013-04-02 23:54:00,21.0,7.0,-100.00,West,271,10.0,26.0,54,0.00,,,0.00,0.000000,,2013-04-03 03:54:00,